Provincetown III — WDB8185 — position and weather

sailwx.info

Track history (hours):
 
Tides and Currents Weather Stations Pressure Air Temp Water Temp Dewpoint Dewpoint Depression Visibility Wind Speed Wind Dir Waves Ship Positions

Provincetown III

Owner: MYSTIC FERRY LEASING LLC, BOSTON, MA. More information available from US FCC via Universal Licensing System and Coast Guard Vessel Documentation Center.

Last reported at 2016-Dec-04 21:29 UTC. Time now 2016-Dec-04 22:30 UTC.
Position N 18°25' W 064°37'.

Length 30 m; draft 2 m.

Type: Passenger vessel. MMSI: 366954420.

Date/timePositionNaut miles runAvg speedWind from/ knotsBaromVisibWave heightAir tempDewpointWater temp
2016-Dec-04 21:29N 18°25' W 064°37'16 7.9
2016-Dec-04 19:26N 18°18' W 064°52'1514.3
2016-Dec-04 18:23N 18°24' W 064°38'11 6.2
2016-Dec-04 16:34N 18°20' W 064°49'1 0.6
2016-Dec-04 14:34N 18°21' W 064°48'2 2.2
2016-Dec-04 13:34N 18°19' W 064°50'12 0.8
2016-Dec-03 21:13N 18°24' W 064°37'15 7.4
2016-Dec-03 19:08N 18°18' W 064°52'1424.4
2016-Dec-03 18:33N 18°23' W 064°39'2 1.4
2016-Dec-03 17:08N 18°24' W 064°37'1323.5
2016-Dec-03 16:33N 18°19' W 064°50'6 6.3
2016-Dec-03 15:33N 18°20' W 064°56'9 9.2
2016-Dec-03 14:34N 18°22' W 064°47'10 9.2
2016-Dec-03 13:29N 18°25' W 064°37'10 5.4
2016-Dec-03 11:33N 18°21' W 064°47'10 0.7
2016-Dec-02 21:13N 18°25' W 064°37'1523.5
2016-Dec-02 20:33N 18°18' W 064°51'1 1.0
2016-Dec-02 19:14N 18°18' W 064°53'1624.5
2016-Dec-02 18:33N 18°24' W 064°37'10 5.0
2016-Dec-02 16:33N 18°22' W 064°47'2 0.8
2016-Dec-02 14:33N 18°20' W 064°48'1110.1
2016-Dec-02 13:27N 18°24' W 064°37'13 6.7
2016-Dec-02 11:33N 18°19' W 064°50'13 0.9
2016-Dec-01 21:17N 18°25' W 064°37'16 7.9
2016-Dec-01 19:13N 18°18' W 064°52'1624.5
2016-Dec-01 18:33N 18°24' W 064°37'10 5.1
2016-Dec-01 16:33N 18°21' W 064°47'4 2.0
2016-Dec-01 14:33N 18°19' W 064°50'1412.5
2016-Dec-01 13:25N 18°25' W 064°37'13 7.1
2016-Dec-01 11:33N 18°19' W 064°50'13 0.9
2016-Nov-30 21:12N 18°25' W 064°37'1523.7
2016-Nov-30 20:33N 18°18' W 064°51'4 1.0
2016-Nov-30 16:33N 18°21' W 064°48'2 1.0
2016-Nov-30 14:33N 18°19' W 064°49'1210.6
2016-Nov-30 13:23N 18°24' W 064°37'12 6.5
2016-Nov-30 11:33N 18°20' W 064°49'13 0.9
2016-Nov-29 21:11N 18°25' W 064°37'1523.7
2016-Nov-29 20:33N 18°19' W 064°51'2 1.3
2016-Nov-29 19:11N 18°18' W 064°53'1524.2
2016-Nov-29 18:33N 18°24' W 064°38'9 4.4
2016-Nov-29 16:33N 18°22' W 064°47'3 1.4
2016-Nov-29 14:34N 18°20' W 064°49'11 9.6
2016-Nov-29 13:22N 18°24' W 064°38'12 6.6
2016-Nov-29 11:33N 18°19' W 064°49'13 0.9
2016-Nov-28 21:12N 18°25' W 064°37'1524.0
2016-Nov-28 20:33N 18°18' W 064°51'1 0.9
2016-Nov-28 19:14N 18°18' W 064°53'8 2.8
2016-Nov-28 16:33N 18°22' W 064°46'3 1.4
2016-Nov-28 14:33N 18°20' W 064°48'11 8.9
2016-Nov-28 13:21N 18°24' W 064°38'13 7.1
2016-Nov-28 11:33N 18°19' W 064°50'12 0.9
2016-Nov-27 21:24N 18°24' W 064°38'15 7.4
2016-Nov-27 19:25N 18°18' W 064°52'1515.0
2016-Nov-27 18:24N 18°24' W 064°37'11 5.7
2016-Nov-27 16:33N 18°21' W 064°48'10 2.8
2016-Nov-27 13:04N 18°24' W 064°38'1 0.1
2016-Nov-26 21:32N 18°24' W 064°37'16 6.8
2016-Nov-26 19:10N 18°18' W 064°52'1525.0
2016-Nov-26 18:33N 18°24' W 064°37'10 5.2
2016-Nov-26 16:34N 18°21' W 064°48'2 0.8
2016-Nov-26 14:34N 18°22' W 064°46'9 7.8
2016-Nov-26 13:28N 18°24' W 064°38'8 4.0
2016-Nov-26 11:33N 18°22' W 064°46'7 0.5
2016-Nov-25 21:13N 18°24' W 064°38'15 7.2
2016-Nov-25 19:08N 18°18' W 064°52'1425.2
2016-Nov-25 18:33N 18°23' W 064°38'8 3.8
2016-Nov-25 16:33N 18°22' W 064°46'2 1.1
2016-Nov-25 14:33N 18°21' W 064°48'11 9.0
2016-Nov-25 13:22N 18°24' W 064°37'13 7.1
2016-Nov-25 11:33N 18°19' W 064°50'  
Track history (hours):
 
Tides and Currents Weather Stations Pressure Air Temp Water Temp Dewpoint Dewpoint Depression Visibility Wind Speed Wind Dir Waves Ship Positions

Provincetown III

Owner: MYSTIC FERRY LEASING LLC, BOSTON, MA. More information available from US FCC via Universal Licensing System and Coast Guard Vessel Documentation Center.

Last reported at 2016-Dec-04 21:29 UTC. Time now 2016-Dec-04 22:30 UTC.
Position N 18°25' W 064°37'.

Length 30 m; draft 2 m.

Type: Passenger vessel. MMSI: 366954420.

Date/timePositionNaut miles runAvg speedWind from/ knotsBaromVisibWave heightAir tempDewpointWater temp
2016-Dec-04 21:29N 18°25' W 064°37'16 7.9
2016-Dec-04 19:26N 18°18' W 064°52'1514.3
2016-Dec-04 18:23N 18°24' W 064°38'11 6.2
2016-Dec-04 16:34N 18°20' W 064°49'1 0.6
2016-Dec-04 14:34N 18°21' W 064°48'2 2.2
2016-Dec-04 13:34N 18°19' W 064°50'12 0.8
2016-Dec-03 21:13N 18°24' W 064°37'15 7.4
2016-Dec-03 19:08N 18°18' W 064°52'1424.4
2016-Dec-03 18:33N 18°23' W 064°39'2 1.4
2016-Dec-03 17:08N 18°24' W 064°37'1323.5
2016-Dec-03 16:33N 18°19' W 064°50'6 6.3
2016-Dec-03 15:33N 18°20' W 064°56'9 9.2
2016-Dec-03 14:34N 18°22' W 064°47'10 9.2
2016-Dec-03 13:29N 18°25' W 064°37'10 5.4
2016-Dec-03 11:33N 18°21' W 064°47'10 0.7
2016-Dec-02 21:13N 18°25' W 064°37'1523.5
2016-Dec-02 20:33N 18°18' W 064°51'1 1.0
2016-Dec-02 19:14N 18°18' W 064°53'1624.5
2016-Dec-02 18:33N 18°24' W 064°37'10 5.0
2016-Dec-02 16:33N 18°22' W 064°47'2 0.8
2016-Dec-02 14:33N 18°20' W 064°48'1110.1
2016-Dec-02 13:27N 18°24' W 064°37'13 6.7
2016-Dec-02 11:33N 18°19' W 064°50'13 0.9
2016-Dec-01 21:17N 18°25' W 064°37'16 7.9
2016-Dec-01 19:13N 18°18' W 064°52'1624.5
2016-Dec-01 18:33N 18°24' W 064°37'10 5.1
2016-Dec-01 16:33N 18°21' W 064°47'4 2.0
2016-Dec-01 14:33N 18°19' W 064°50'1412.5
2016-Dec-01 13:25N 18°25' W 064°37'13 7.1
2016-Dec-01 11:33N 18°19' W 064°50'13 0.9
2016-Nov-30 21:12N 18°25' W 064°37'1523.7
2016-Nov-30 20:33N 18°18' W 064°51'4 1.0
2016-Nov-30 16:33N 18°21' W 064°48'2 1.0
2016-Nov-30 14:33N 18°19' W 064°49'1210.6
2016-Nov-30 13:23N 18°24' W 064°37'12 6.5
2016-Nov-30 11:33N 18°20' W 064°49'13 0.9
2016-Nov-29 21:11N 18°25' W 064°37'1523.7
2016-Nov-29 20:33N 18°19' W 064°51'2 1.3
2016-Nov-29 19:11N 18°18' W 064°53'1524.2
2016-Nov-29 18:33N 18°24' W 064°38'9 4.4
2016-Nov-29 16:33N 18°22' W 064°47'3 1.4
2016-Nov-29 14:34N 18°20' W 064°49'11 9.6
2016-Nov-29 13:22N 18°24' W 064°38'12 6.6
2016-Nov-29 11:33N 18°19' W 064°49'13 0.9
2016-Nov-28 21:12N 18°25' W 064°37'1524.0
2016-Nov-28 20:33N 18°18' W 064°51'1 0.9
2016-Nov-28 19:14N 18°18' W 064°53'8 2.8
2016-Nov-28 16:33N 18°22' W 064°46'3 1.4
2016-Nov-28 14:33N 18°20' W 064°48'11 8.9
2016-Nov-28 13:21N 18°24' W 064°38'13 7.1
2016-Nov-28 11:33N 18°19' W 064°50'12 0.9
2016-Nov-27 21:24N 18°24' W 064°38'15 7.4
2016-Nov-27 19:25N 18°18' W 064°52'1515.0
2016-Nov-27 18:24N 18°24' W 064°37'11 5.7
2016-Nov-27 16:33N 18°21' W 064°48'10 2.8
2016-Nov-27 13:04N 18°24' W 064°38'1 0.1
2016-Nov-26 21:32N 18°24' W 064°37'16 6.8
2016-Nov-26 19:10N 18°18' W 064°52'1525.0
2016-Nov-26 18:33N 18°24' W 064°37'10 5.2
2016-Nov-26 16:34N 18°21' W 064°48'2 0.8
2016-Nov-26 14:34N 18°22' W 064°46'9 7.8
2016-Nov-26 13:28N 18°24' W 064°38'8 4.0
2016-Nov-26 11:33N 18°22' W 064°46'7 0.5
2016-Nov-25 21:13N 18°24' W 064°38'15 7.2
2016-Nov-25 19:08N 18°18' W 064°52'1425.2
2016-Nov-25 18:33N 18°23' W 064°38'8 3.8
2016-Nov-25 16:33N 18°22' W 064°46'2 1.1
2016-Nov-25 14:33N 18°21' W 064°48'11 9.0
2016-Nov-25 13:22N 18°24' W 064°37'13 7.1
2016-Nov-25 11:33N 18°19' W 064°50'  

Dump ship's entire track history